Time;durP1;ratioP1;P1;durP2;ratioP2;P2;SDS_P1;SDS_P2;PMS_P1;PMS_P2;Temp;Humidity;BMP_temperature;BMP_pressure;BME280_temperature;BME280_humidity;BME280_pressure;Samples;Min_cycle;Max_cycle;Signal;HPM_P1;HPM_P2
2022/03/06 00:00:55;;;;;;;10.00;7.10;;;;;;;0.99;100.00;102722.19;4997898;28;20045;-81
2022/03/06 00:03:24;;;;;;;8.00;6.93;;;;;;;0.99;100.00;102722.19;4997347;28;20057;-81
2022/03/06 00:05:52;;;;;;;9.60;7.97;;;;;;;1.01;100.00;102727.50;4987261;28;20045;-82
2022/03/06 00:08:21;;;;;;;7.45;6.75;;;;;;;1.02;100.00;102724.09;5014601;28;20045;-81
2022/03/06 00:10:50;;;;;;;8.77;7.43;;;;;;;1.03;100.00;102723.31;4985809;28;20388;-81
2022/03/06 00:13:19;;;;;;;10.50;7.15;;;;;;;1.03;100.00;102720.72;4977375;28;20272;-80
2022/03/06 00:15:50;;;;;;;9.15;7.18;;;;;;;1.02;100.00;102725.03;4992323;28;20483;-79
2022/03/06 00:18:19;;;;;;;9.75;7.40;;;;;;;1.04;100.00;102732.91;4979210;28;20054;-80
2022/03/06 00:20:48;;;;;;;6.97;6.22;;;;;;;1.04;100.00;102720.84;4989578;28;20041;-81
2022/03/06 00:23:18;;;;;;;7.40;6.57;;;;;;;1.05;100.00;102727.81;4969459;28;20307;-81
2022/03/06 00:25:46;;;;;;;9.07;6.50;;;;;;;1.06;100.00;102731.31;5015099;28;20050;-80
2022/03/06 00:28:15;;;;;;;6.82;5.60;;;;;;;1.06;100.00;102727.03;5009078;28;20499;-81
2022/03/06 00:30:45;;;;;;;6.95;6.07;;;;;;;1.07;100.00;102723.63;4981845;28;20041;-81
2022/03/06 00:33:13;;;;;;;6.85;6.07;;;;;;;1.07;100.00;102728.81;5017467;28;20041;-80
2022/03/06 00:35:42;;;;;;;8.63;6.22;;;;;;;1.07;100.00;102731.41;5030619;28;20061;-81
2022/03/06 00:38:11;;;;;;;9.80;5.88;;;;;;;1.07;100.00;102728.81;5010672;28;20057;-81
2022/03/06 00:40:42;;;;;;;6.20;5.10;;;;;;;1.07;100.00;102723.63;5031995;28;20072;-82
2022/03/06 00:43:11;;;;;;;8.02;5.80;;;;;;;1.07;100.00;102727.94;5024093;28;20578;-81
2022/03/06 00:45:39;;;;;;;7.72;6.13;;;;;;;1.03;100.00;102720.72;4941539;28;20049;-82
2022/03/06 00:48:08;;;;;;;10.10;7.13;;;;;;;1.03;100.00;102715.53;5002071;28;20555;-81
2022/03/06 00:50:39;;;;;;;7.00;5.53;;;;;;;1.02;100.00;102718.91;4986370;28;20062;-82
2022/03/06 00:53:08;;;;;;;12.15;6.53;;;;;;;1.01;100.00;102723.19;5005725;28;20046;-81
2022/03/06 00:55:37;;;;;;;8.55;5.85;;;;;;;1.02;100.00;102714.63;4952421;28;20046;-82
2022/03/06 00:58:09;;;;;;;7.22;5.90;;;;;;;1.03;100.00;102721.63;5011833;28;20319;-80
2022/03/06 01:00:47;;;;;;;7.15;5.82;;;;;;;1.04;100.00;102718.25;4979047;28;20050;-81
2022/03/06 01:03:19;;;;;;;5.72;4.80;;;;;;;1.03;100.00;102716.41;5027811;28;20050;-81
2022/03/06 01:05:48;;;;;;;6.13;5.13;;;;;;;1.05;100.00;102720.03;5023070;28;20395;-82
2022/03/06 01:08:17;;;;;;;8.45;5.90;;;;;;;1.06;100.00;102726.13;4975477;28;20042;-80
2022/03/06 01:10:48;;;;;;;7.72;5.70;;;;;;;1.06;100.00;102729.63;4994294;28;20407;-82
2022/03/06 01:13:19;;;;;;;5.60;4.88;;;;;;;1.08;100.00;102729.75;4995566;28;20407;-81
2022/03/06 01:15:48;;;;;;;6.25;4.53;;;;;;;1.09;100.00;102724.66;4986738;28;20046;-81
2022/03/06 01:18:20;;;;;;;6.53;5.28;;;;;;;1.11;100.00;102729.94;5011230;28;20049;-82
2022/03/06 01:20:50;;;;;;;6.78;5.07;;;;;;;1.12;100.00;102735.25;4976141;28;20379;-81
2022/03/06 01:23:19;;;;;;;7.72;5.18;;;;;;;1.11;100.00;102729.94;5001810;28;20053;-81
2022/03/06 01:25:47;;;;;;;6.03;5.22;;;;;;;1.12;100.00;102732.66;5007909;28;20447;-80
2022/03/06 01:28:18;;;;;;;5.95;4.63;;;;;;;1.12;100.00;102740.47;4977707;28;20054;-81
2022/03/06 01:30:47;;;;;;;7.00;4.55;;;;;;;1.12;100.00;102737.84;4981608;28;20049;-81
2022/03/06 01:33:16;;;;;;;5.60;4.72;;;;;;;1.14;100.00;102736.28;4959751;28;20042;-82
2022/03/06 01:35:45;;;;;;;5.32;3.92;;;;;;;1.13;100.00;102747.44;4995735;28;20053;-82
2022/03/06 01:38:14;;;;;;;4.82;3.88;;;;;;;1.14;100.00;102744.06;5016588;28;20031;-80
2022/03/06 01:40:42;;;;;;;8.25;4.50;;;;;;;1.15;100.00;102743.28;4997036;28;20065;-81
2022/03/06 01:43:11;;;;;;;6.35;4.13;;;;;;;1.17;100.00;102741.69;4979584;28;20266;-81
2022/03/06 01:45:40;;;;;;;6.60;3.80;;;;;;;1.20;100.00;102751.38;4979064;28;20416;-81
2022/03/06 01:48:09;;;;;;;6.13;4.35;;;;;;;1.22;100.00;102748.91;5025632;28;20589;-80
2022/03/06 01:50:39;;;;;;;9.00;4.30;;;;;;;1.23;100.00;102743.84;5006688;28;20395;-81
2022/03/06 01:53:12;;;;;;;5.07;3.53;;;;;;;1.24;100.00;102750.81;4974251;28;20053;-80
2022/03/06 01:55:42;;;;;;;4.00;3.60;;;;;;;1.25;100.00;102749.09;5019758;28;20516;-81
2022/03/06 01:58:12;;;;;;;4.20;3.67;;;;;;;1.27;100.00;102750.16;5028523;28;20555;-81
2022/03/06 02:00:49;;;;;;;5.67;3.93;;;;;;;1.28;100.00;102744.16;4986398;28;20030;-80
2022/03/06 02:03:20;;;;;;;7.90;4.80;;;;;;;1.29;100.00;102752.06;5032273;23;20304;-82
2022/03/06 02:05:50;;;;;;;4.80;3.95;;;;;;;1.30;100.00;102751.25;4982979;28;20046;-82
2022/03/06 02:08:19;;;;;;;5.72;4.18;;;;;;;1.31;100.00;102744.38;4988365;28;20058;-81
2022/03/06 02:10:50;;;;;;;6.20;4.53;;;;;;;1.32;100.00;102741.91;4979291;28;20042;-82
2022/03/06 02:13:19;;;;;;;5.90;3.85;;;;;;;1.33;100.00;102743.69;4990345;28;20057;-82
2022/03/06 02:15:48;;;;;;;5.75;4.35;;;;;;;1.34;100.00;102749.78;5004538;28;20045;-83
2022/03/06 02:18:19;;;;;;;5.85;4.28;;;;;;;1.35;100.00;102736.00;4984286;28;20398;-81
2022/03/06 02:20:48;;;;;;;7.88;4.43;;;;;;;1.38;100.00;102746.63;4969219;28;20038;-82
2022/03/06 02:23:17;;;;;;;6.95;3.90;;;;;;;1.38;100.00;102743.09;5001527;28;20490;-82
2022/03/06 02:25:46;;;;;;;8.35;4.53;;;;;;;1.39;100.00;102747.50;4962552;28;20057;-82
2022/03/06 02:28:15;;;;;;;6.43;4.10;;;;;;;1.40;100.00;102746.72;4999341;28;20494;-82
2022/03/06 02:30:44;;;;;;;8.40;4.70;;;;;;;1.41;100.00;102740.72;4994841;28;20049;-83
2022/03/06 02:33:13;;;;;;;5.38;4.22;;;;;;;1.40;100.00;102752.81;4960174;28;20038;-82
2022/03/06 02:35:42;;;;;;;5.28;3.85;;;;;;;1.42;100.00;102743.44;4975176;28;20037;-81
2022/03/06 02:38:11;;;;;;;4.25;3.75;;;;;;;1.42;100.00;102742.53;5005899;28;20053;-81
2022/03/06 02:40:42;;;;;;;4.18;3.72;;;;;;;1.42;100.00;102743.44;4975082;28;20068;-83
2022/03/06 02:43:13;;;;;;;6.38;4.05;;;;;;;1.44;100.00;102743.56;5017696;28;20545;-81
2022/03/06 02:45:43;;;;;;;5.03;4.20;;;;;;;1.43;100.00;102746.94;5005143;28;20042;-81
2022/03/06 02:48:12;;;;;;;5.07;3.63;;;;;;;1.43;100.00;102750.44;4999721;28;20606;-82
2022/03/06 02:50:44;;;;;;;6.18;4.00;;;;;;;1.41;100.00;102744.22;4993926;28;20049;-82
2022/03/06 02:53:12;;;;;;;6.90;4.15;;;;;;;1.41;100.00;102744.22;4981519;28;20046;-82
2022/03/06 02:55:42;;;;;;;8.05;4.43;;;;;;;1.41;100.00;102735.53;5000603;28;20034;-82
2022/03/06 02:58:10;;;;;;;5.65;4.07;;;;;;;1.39;100.00;102740.63;5001499;28;20662;-82
2022/03/06 03:00:39;;;;;;;7.93;4.47;;;;;;;1.37;100.00;102734.41;4968568;28;20053;-82
2022/03/06 03:03:07;;;;;;;5.13;4.20;;;;;;;1.35;100.00;102736.91;4994761;28;20279;-82
2022/03/06 03:05:36;;;;;;;5.97;4.10;;;;;;;1.34;100.00;102729.91;4980328;28;20376;-82
2022/03/06 03:08:05;;;;;;;5.10;4.18;;;;;;;1.32;100.00;102725.38;4946716;28;20043;-81
2022/03/06 03:10:34;;;;;;;8.43;4.47;;;;;;;1.31;100.00;102739.19;4989832;28;20039;-81
2022/03/06 03:13:02;;;;;;;6.65;4.45;;;;;;;1.29;100.00;102740.78;4978242;28;20510;-82
2022/03/06 03:15:30;;;;;;;6.93;4.47;;;;;;;1.26;100.00;102735.34;4986103;28;20384;-82
2022/03/06 03:17:59;;;;;;;4.22;3.70;;;;;;;1.23;100.00;102740.31;4981044;28;20039;-81
2022/03/06 03:20:27;;;;;;;7.10;4.25;;;;;;;1.23;100.00;102745.50;4954058;28;20511;-81
2022/03/06 03:22:56;;;;;;;5.55;4.60;;;;;;;1.20;100.00;102743.59;4947672;28;20038;-81
2022/03/06 03:25:24;;;;;;;8.00;4.63;;;;;;;1.20;100.00;102735.81;4957178;28;20407;-82
2022/03/06 03:27:53;;;;;;;10.05;5.03;;;;;;;1.19;100.00;102738.28;4981789;28;20039;-81
2022/03/06 03:30:21;;;;;;;6.07;4.32;;;;;;;1.19;100.00;102738.28;4987925;28;20057;-82
2022/03/06 03:32:49;;;;;;;6.55;4.35;;;;;;;1.17;100.00;102743.38;4981679;28;20057;-83
2022/03/06 03:35:18;;;;;;;6.05;4.38;;;;;;;1.15;100.00;102745.88;4965430;28;20686;-81
2022/03/06 03:37:46;;;;;;;5.03;3.85;;;;;;;1.13;100.00;102739.66;4981819;28;20515;-83
2022/03/06 03:40:15;;;;;;;7.13;4.28;;;;;;;1.12;100.00;102739.56;4980033;28;20069;-81
2022/03/06 03:42:43;;;;;;;4.78;3.67;;;;;;;1.11;100.00;102753.31;4965686;28;20062;-82
2022/03/06 03:45:12;;;;;;;5.60;4.32;;;;;;;1.10;100.00;102749.84;4964100;28;20229;-81
2022/03/06 03:47:40;;;;;;;4.32;3.45;;;;;;;1.10;100.00;102754.13;4972076;28;20043;-82
2022/03/06 03:50:09;;;;;;;5.55;3.72;;;;;;;1.08;100.00;102748.81;4977865;28;20081;-81
2022/03/06 03:52:37;;;;;;;5.57;3.63;;;;;;;1.06;100.00;102747.81;4970571;28;20509;-82
2022/03/06 03:55:07;;;;;;;5.88;4.18;;;;;;;1.02;100.00;102748.38;4966733;28;20196;-81
2022/03/06 03:57:35;;;;;;;4.53;4.00;;;;;;;1.00;100.00;102751.63;4999320;28;20050;-82
2022/03/06 04:00:06;;;;;;;4.68;3.88;;;;;;;0.97;100.00;102752.34;4994201;28;20335;-82
2022/03/06 04:02:34;;;;;;;8.52;4.68;;;;;;;0.94;100.00;102750.41;4983536;28;20051;-82
2022/03/06 04:05:03;;;;;;;7.10;4.38;;;;;;;0.93;100.00;102763.28;4988742;28;20284;-82
2022/03/06 04:07:32;;;;;;;5.55;4.05;;;;;;;0.90;100.00;102765.66;4986285;28;20050;-82
2022/03/06 04:10:00;;;;;;;9.90;4.45;;;;;;;0.89;100.00;102766.44;4942941;28;20061;-81
2022/03/06 04:12:29;;;;;;;4.70;3.97;;;;;;;0.87;100.00;102768.00;5002074;28;20053;-81
2022/03/06 04:14:57;;;;;;;6.32;3.97;;;;;;;0.86;100.00;102774.00;4979954;28;20354;-82
2022/03/06 04:17:26;;;;;;;8.48;4.15;;;;;;;0.83;100.00;102766.88;4978801;28;20053;-82
2022/03/06 04:19:55;;;;;;;8.80;4.10;;;;;;;0.82;100.00;102774.59;4977257;28;20046;-81
2022/03/06 04:22:23;;;;;;;4.97;4.00;;;;;;;0.80;100.00;102773.56;5005312;28;20057;-82
2022/03/06 04:24:52;;;;;;;4.18;3.85;;;;;;;0.78;100.00;102776.03;4961756;28;20069;-82
2022/03/06 04:27:20;;;;;;;8.52;4.05;;;;;;;0.75;100.00;102771.50;5003031;28;20046;-81
2022/03/06 04:29:48;;;;;;;6.53;4.05;;;;;;;0.73;100.00;102775.69;4987047;28;20049;-82
2022/03/06 04:32:17;;;;;;;5.00;4.13;;;;;;;0.70;100.00;102778.06;5001932;28;20034;-81
2022/03/06 04:34:45;;;;;;;5.40;4.10;;;;;;;0.66;100.00;102778.63;4953682;28;20507;-82
2022/03/06 04:37:14;;;;;;;7.45;3.70;;;;;;;0.63;100.00;102781.00;4977511;28;20046;-82
2022/03/06 04:39:42;;;;;;;6.85;4.03;;;;;;;0.63;100.00;102785.28;4953253;28;20053;-83
2022/03/06 04:42:12;;;;;;;5.70;4.05;;;;;;;0.60;100.00;102787.63;4989020;28;20034;-81
2022/03/06 04:44:40;;;;;;;5.55;3.88;;;;;;;0.57;100.00;102780.53;4988369;28;20045;-81
2022/03/06 04:47:09;;;;;;;4.85;3.72;;;;;;;0.54;100.00;102777.72;4981847;28;20284;-81
2022/03/06 04:49:37;;;;;;;6.97;3.65;;;;;;;0.52;100.00;102776.69;4986783;28;20058;-83
2022/03/06 04:52:06;;;;;;;5.68;3.67;;;;;;;0.50;100.00;102788.66;4984709;28;20688;-81
2022/03/06 04:54:34;;;;;;;6.10;3.75;;;;;;;0.48;100.00;102785.03;4962217;28;20500;-82
2022/03/06 04:57:03;;;;;;;4.95;3.83;;;;;;;0.46;100.00;102784.91;4962406;28;20034;-81
2022/03/06 04:59:32;;;;;;;6.82;3.35;;;;;;;0.45;100.00;102792.59;4988854;28;20057;-81
2022/03/06 05:02:01;;;;;;;5.40;3.78;;;;;;;0.42;100.00;102788.06;4969382;28;20263;-82
2022/03/06 05:04:29;;;;;;;4.72;3.33;;;;;;;0.41;100.00;102800.91;4984365;28;20427;-81
2022/03/06 05:06:59;;;;;;;4.95;3.70;;;;;;;0.39;100.00;102798.22;4980467;28;20208;-82
2022/03/06 05:09:27;;;;;;;4.22;3.30;;;;;;;0.37;100.00;102797.19;4990666;28;20122;-82
2022/03/06 05:11:56;;;;;;;4.25;3.20;;;;;;;0.35;100.00;102802.25;4971877;28;20159;-82
2022/03/06 05:14:24;;;;;;;3.53;3.22;;;;;;;0.33;100.00;102801.25;4984655;28;20046;-81
2022/03/06 05:16:53;;;;;;;4.05;3.50;;;;;;;0.31;100.00;102796.72;4991455;28;20034;-82
2022/03/06 05:19:21;;;;;;;5.38;3.50;;;;;;;0.27;100.00;102803.38;4966621;28;20046;-82
2022/03/06 05:21:49;;;;;;;6.32;3.42;;;;;;;0.25;100.00;102804.94;4985980;28;20046;-82
2022/03/06 05:24:18;;;;;;;4.22;3.15;;;;;;;0.23;100.00;102801.34;4953707;28;20572;-81
2022/03/06 05:26:46;;;;;;;4.25;3.85;;;;;;;0.20;100.00;102801.09;4978428;28;20042;-82
2022/03/06 05:29:14;;;;;;;5.07;3.75;;;;;;;0.16;100.00;102802.53;4999424;28;20046;-82
2022/03/06 05:31:43;;;;;;;4.95;4.03;;;;;;;0.12;100.00;102807.38;4998843;28;20047;-82
2022/03/06 05:34:11;;;;;;;5.30;3.85;;;;;;;0.09;100.00;102807.13;4999318;28;21106;-82
2022/03/06 05:36:40;;;;;;;3.58;3.28;;;;;;;0.07;100.00;102812.19;4976495;28;20040;-82
2022/03/06 05:39:08;;;;;;;5.68;3.22;;;;;;;0.06;100.00;102813.00;4964980;28;21338;-81
2022/03/06 05:41:37;;;;;;;6.00;3.45;;;;;;;0.06;100.00;102822.44;4960960;28;20058;-82
2022/03/06 05:44:05;;;;;;;4.57;3.00;;;;;;;0.04;100.00;102826.59;5000243;28;20251;-81
2022/03/06 05:46:33;;;;;;;4.13;3.42;;;;;;;0.05;100.00;102828.44;4992629;28;20043;-82
2022/03/06 05:49:02;;;;;;;4.97;3.70;;;;;;;0.05;100.00;102834.50;4999991;28;20061;-82
2022/03/06 05:51:30;;;;;;;2.92;2.50;;;;;;;0.06;100.00;102835.41;4988432;28;20053;-82
2022/03/06 05:53:59;;;;;;;4.55;2.95;;;;;;;0.06;100.00;102840.59;4995018;28;20648;-81
2022/03/06 05:56:27;;;;;;;4.22;3.17;;;;;;;0.05;100.00;102836.22;4987546;28;20047;-81
2022/03/06 05:58:56;;;;;;;3.65;2.65;;;;;;;0.03;100.00;102840.38;4967278;28;20232;-81
2022/03/06 06:01:24;;;;;;;3.20;2.90;;;;;;;0.02;100.00;102843.72;4997758;28;20046;-81
2022/03/06 06:03:53;;;;;;;5.50;3.35;;;;;;;0.02;100.00;102844.66;4972864;28;20058;-82
2022/03/06 06:06:21;;;;;;;2.70;2.50;;;;;;;0.05;100.00;102859.53;4993922;28;20515;-82
2022/03/06 06:08:50;;;;;;;3.90;3.30;;;;;;;0.05;100.00;102859.53;5000359;28;20039;-82
2022/03/06 06:11:19;;;;;;;3.38;3.08;;;;;;;0.06;100.00;102869.09;4974391;28;20046;-81
2022/03/06 06:13:48;;;;;;;4.60;3.65;;;;;;;0.07;100.00;102868.34;4986522;28;20379;-82
2022/03/06 06:16:16;;;;;;;3.60;2.83;;;;;;;0.06;100.00;102871.69;4987124;28;20502;-82
2022/03/06 06:18:45;;;;;;;2.38;2.20;;;;;;;0.06;100.00;102869.09;4960234;28;20061;-82
2022/03/06 06:21:16;;;;;;;4.85;2.65;;;;;;;0.07;100.00;102869.22;4969313;28;20058;-82
2022/03/06 06:23:45;;;;;;;2.60;2.40;;;;;;;0.09;100.00;102874.53;4965715;28;20050;-83
2022/03/06 06:26:14;;;;;;;4.30;2.72;;;;;;;0.08;100.00;102875.34;4981167;28;20057;-82
2022/03/06 06:28:42;;;;;;;4.00;2.85;;;;;;;0.09;100.00;102872.84;4976503;28;20038;-83
2022/03/06 06:31:11;;;;;;;2.85;2.58;;;;;;;0.09;100.00;102870.25;4992932;28;20046;-82
2022/03/06 06:33:39;;;;;;;3.45;2.50;;;;;;;0.08;100.00;102878.84;5002341;28;20523;-83
2022/03/06 06:36:08;;;;;;;3.38;2.63;;;;;;;0.07;100.00;102878.72;4981942;28;20050;-82
2022/03/06 06:38:36;;;;;;;2.55;2.35;;;;;;;0.09;100.00;102882.31;4970152;28;20046;-82
2022/03/06 06:41:04;;;;;;;2.35;2.13;;;;;;;0.14;100.00;102886.19;4961922;28;20168;-82
2022/03/06 06:43:33;;;;;;;2.55;2.20;;;;;;;0.19;100.00;102890.06;5001886;28;20042;-82
2022/03/06 06:46:01;;;;;;;3.40;2.30;;;;;;;0.25;100.00;102889.63;4956517;28;20256;-82
2022/03/06 06:48:29;;;;;;;2.53;2.08;;;;;;;0.33;100.00;102889.41;4984879;28;20042;-82
2022/03/06 06:50:58;;;;;;;2.40;2.15;;;;;;;0.42;100.00;102896.09;4950177;28;20046;-83
2022/03/06 06:53:26;;;;;;;2.60;2.47;;;;;;;0.50;100.00;102893.31;4975895;28;20054;-82
2022/03/06 06:55:55;;;;;;;2.00;1.90;;;;;;;0.61;100.00;102895.84;4983491;28;20050;-82
2022/03/06 06:58:23;;;;;;;4.35;3.05;;;;;;;0.73;100.00;102889.88;4980172;28;20034;-82
2022/03/06 07:00:52;;;;;;;2.10;1.90;;;;;;;0.93;100.00;102901.78;4946453;28;20500;-82
2022/03/06 07:03:20;;;;;;;2.60;2.25;;;;;;;1.12;100.00;102896.25;4961236;28;20057;-81
2022/03/06 07:05:49;;;;;;;2.08;1.98;;;;;;;1.28;100.00;102897.41;5000582;28;20122;-82
2022/03/06 07:08:18;;;;;;;2.40;2.05;;;;;;;1.31;99.71;102890.72;5001644;28;20045;-82
2022/03/06 07:10:46;;;;;;;2.20;2.00;;;;;;;1.35;100.00;102887.56;4981377;28;20039;-82
2022/03/06 07:13:15;;;;;;;2.42;2.22;;;;;;;1.46;100.00;102892.66;4959015;28;20077;-82
2022/03/06 07:15:43;;;;;;;2.95;1.90;;;;;;;1.51;100.00;102900.00;4964316;28;20069;-82
2022/03/06 07:18:12;;;;;;;3.92;2.30;;;;;;;1.55;100.00;102893.31;4982733;28;20035;-81
2022/03/06 07:20:40;;;;;;;3.25;2.10;;;;;;;1.58;99.63;102890.03;4970012;28;20034;-81
2022/03/06 07:23:08;;;;;;;2.60;2.38;;;;;;;1.56;99.92;102895.13;4994756;28;20046;-82
2022/03/06 07:25:37;;;;;;;4.07;2.75;;;;;;;1.54;99.60;102892.41;4958877;28;20398;-82
2022/03/06 07:28:05;;;;;;;5.10;2.40;;;;;;;1.50;98.71;102892.97;4989980;28;20298;-83
2022/03/06 07:30:34;;;;;;;3.25;2.20;;;;;;;1.48;99.70;102897.16;4981264;28;20038;-82
2022/03/06 07:33:03;;;;;;;4.07;2.22;;;;;;;1.47;99.25;102902.25;4988854;28;20042;-82
2022/03/06 07:35:32;;;;;;;7.05;4.72;;;;;;;1.42;97.12;102904.53;4985880;28;20507;-82
2022/03/06 07:38:00;;;;;;;3.63;2.50;;;;;;;1.40;96.75;102908.69;4972623;28;20051;-81
2022/03/06 07:40:29;;;;;;;4.30;2.38;;;;;;;1.41;97.30;102910.50;4997833;28;20042;-82
2022/03/06 07:42:58;;;;;;;2.75;2.30;;;;;;;1.43;97.93;102918.41;4983060;28;20900;-82
2022/03/06 07:45:26;;;;;;;3.17;2.30;;;;;;;1.46;98.45;102922.13;4962857;28;20038;-82
2022/03/06 07:47:55;;;;;;;6.10;2.00;;;;;;;1.46;97.02;102916.94;4990161;28;20038;-82
2022/03/06 07:50:23;;;;;;;2.88;2.30;;;;;;;1.49;97.47;102917.19;4986484;28;20058;-81
2022/03/06 07:52:52;;;;;;;4.75;3.33;;;;;;;1.56;97.19;102918.50;4998937;28;20049;-82
2022/03/06 07:55:20;;;;;;;4.65;2.30;;;;;;;1.60;97.19;102910.13;4998766;28;20046;-82
2022/03/06 07:57:49;;;;;;;3.42;2.55;;;;;;;1.64;95.31;102917.38;5000070;28;20049;-82
2022/03/06 08:00:17;;;;;;;4.38;2.35;;;;;;;1.74;96.66;102911.16;4969139;28;20038;-82
2022/03/06 08:02:46;;;;;;;3.45;2.13;;;;;;;1.91;97.27;102912.34;4960742;28;20407;-83
2022/03/06 08:05:14;;;;;;;6.28;3.05;;;;;;;2.11;96.23;102911.16;4987687;28;20034;-80
2022/03/06 08:07:43;;;;;;;3.40;2.03;;;;;;;2.32;96.93;102910.06;4964616;28;20466;-81
2022/03/06 08:10:11;;;;;;;2.55;2.00;;;;;;;2.57;96.82;102906.59;4967458;28;20053;-80
2022/03/06 08:12:41;;;;;;;2.20;2.00;;;;;;;2.85;97.57;102911.06;4998194;28;20055;-81
2022/03/06 08:15:09;;;;;;;2.35;1.95;;;;;;;3.15;97.56;102901.78;5012057;28;20650;-81
2022/03/06 08:17:38;;;;;;;3.72;2.08;;;;;;;3.45;94.59;102907.22;4987186;28;20045;-81
2022/03/06 08:20:07;;;;;;;2.78;1.90;;;;;;;3.88;95.91;102910.00;5011868;28;20246;-83
2022/03/06 08:22:36;;;;;;;2.35;2.03;;;;;;;4.34;96.50;102914.56;5004188;28;20057;-82
2022/03/06 08:25:06;;;;;;;2.47;2.28;;;;;;;4.79;97.42;102908.63;4996159;28;20038;-81
2022/03/06 08:27:34;;;;;;;2.50;1.98;;;;;;;5.19;96.14;102905.75;4989820;28;20050;-81
2022/03/06 08:30:05;;;;;;;6.72;4.30;;;;;;;5.49;95.44;102918.78;4985788;28;20038;-82
2022/03/06 08:32:34;;;;;;;3.60;2.10;;;;;;;5.79;96.01;102917.00;5003007;28;20037;-82
2022/03/06 08:35:02;;;;;;;3.13;2.00;;;;;;;6.03;94.57;102924.44;5005523;28;20321;-81
2022/03/06 08:37:31;;;;;;;3.28;1.90;;;;;;;6.09;91.53;102926.47;5005913;28;20038;-82
2022/03/06 08:39:59;;;;;;;2.92;2.05;;;;;;;6.13;90.46;102921.53;5010900;28;20049;-81
2022/03/06 08:42:27;;;;;;;2.40;1.92;;;;;;;6.22;89.27;102924.63;4984236;28;20050;-82
2022/03/06 08:44:56;;;;;;;2.90;1.90;;;;;;;6.29;89.90;102931.09;5012692;28;20046;-82
2022/03/06 08:47:24;;;;;;;3.03;2.17;;;;;;;6.37;86.46;102931.50;4980940;28;20053;-82
2022/03/06 08:49:52;;;;;;;1.80;1.70;;;;;;;6.37;84.01;102931.50;5005325;28;20042;-81
2022/03/06 08:52:21;;;;;;;3.40;2.03;;;;;;;6.33;82.24;102942.63;5019677;28;20061;-82
2022/03/06 08:54:49;;;;;;;2.03;1.73;;;;;;;6.34;82.68;102932.25;5008016;28;20046;-82
2022/03/06 08:57:18;;;;;;;2.78;2.22;;;;;;;6.41;82.38;102933.50;5017115;28;20671;-82
2022/03/06 08:59:46;;;;;;;2.05;1.67;;;;;;;6.45;80.01;102940.69;5005395;28;20038;-82
2022/03/06 09:02:14;;;;;;;4.32;1.90;;;;;;;6.56;79.68;102950.03;4998331;28;20058;-81
2022/03/06 09:04:43;;;;;;;2.45;1.77;;;;;;;6.43;76.11;102950.19;4959189;28;20166;-81
2022/03/06 09:07:11;;;;;;;4.47;2.20;;;;;;;6.37;75.11;102949.84;5020594;28;20398;-82
2022/03/06 09:09:40;;;;;;;5.00;1.80;;;;;;;6.36;74.73;102942.81;4987212;28;20042;-83
2022/03/06 09:12:09;;;;;;;2.45;1.73;;;;;;;6.36;73.05;102951.56;5014232;28;20049;-81
2022/03/06 09:14:37;;;;;;;3.40;2.03;;;;;;;6.39;71.82;102958.66;4991017;28;20045;-81
2022/03/06 09:17:08;;;;;;;4.13;1.90;;;;;;;6.41;71.83;102949.22;5006038;28;20057;-82
2022/03/06 09:19:38;;;;;;;2.05;1.80;;;;;;;6.40;70.02;102947.41;4958232;28;20041;-80
2022/03/06 09:22:07;;;;;;;2.88;2.13;;;;;;;6.33;68.90;102950.50;5000370;28;20503;-81
2022/03/06 09:24:36;;;;;;;2.15;1.77;;;;;;;6.23;68.15;102951.72;5009113;28;23125;-81
2022/03/06 09:27:04;;;;;;;2.90;2.00;;;;;;;6.07;66.89;102951.69;5025082;28;20038;-82
2022/03/06 09:29:33;;;;;;;1.92;1.70;;;;;;;5.98;67.02;102949.47;4990401;28;21140;-81
2022/03/06 09:32:01;;;;;;;3.90;2.00;;;;;;;5.90;67.12;102949.00;5000483;28;20046;-82
2022/03/06 09:34:30;;;;;;;3.00;2.05;;;;;;;5.84;67.49;102953.88;4985757;28;20247;-82
2022/03/06 09:36:58;;;;;;;2.38;1.90;;;;;;;5.68;66.01;102952.13;4984936;28;20042;-81
2022/03/06 09:39:27;;;;;;;3.90;2.00;;;;;;;5.51;66.15;102955.50;5011000;28;20038;-81
2022/03/06 09:41:56;;;;;;;2.50;2.15;;;;;;;5.38;66.51;102957.38;5007681;28;20046;-80
2022/03/06 09:44:27;;;;;;;4.13;2.20;;;;;;;5.22;66.79;102962.53;4996815;28;20025;-83
2022/03/06 09:46:58;;;;;;;;;;;;;;;5.15;65.33;102966.50;4993016;28;20495;-81
2022/03/06 09:49:27;;;;;;;2.40;2.20;;;;;;;5.05;66.84;102958.94;4980822;28;19932;-82
2022/03/06 09:51:56;;;;;;;2.80;1.88;;;;;;;5.02;67.46;102959.63;5003191;28;20037;-79
2022/03/06 09:54:25;;;;;;;3.47;2.10;;;;;;;5.00;68.25;102949.91;4999145;28;20049;-82
2022/03/06 09:56:55;;;;;;;2.40;1.77;;;;;;;5.02;68.55;102959.63;4996688;28;20050;-80
2022/03/06 09:59:23;;;;;;;2.20;1.90;;;;;;;5.03;68.18;102968.41;5005608;28;20050;-82
2022/03/06 10:01:52;;;;;;;2.47;2.00;;;;;;;5.01;68.39;102967.38;5008939;28;20049;-82
2022/03/06 10:04:30;;;;;;;6.10;2.65;;;;;;;5.01;68.48;102963.06;5004228;28;20042;-81
2022/03/06 10:07:06;;;;;;;2.75;2.53;;;;;;;5.02;67.93;102958.75;4985405;28;20061;-82
2022/03/06 10:09:47;;;;;;;2.58;2.33;;;;;;;4.92;66.57;102957.28;4994853;28;20620;-78
2022/03/06 10:12:22;;;;;;;4.65;2.58;;;;;;;4.79;68.12;102959.97;5000206;28;20050;-80
2022/03/06 10:14:56;;;;;;;4.43;2.17;;;;;;;4.80;68.23;102959.16;5002079;28;20061;-79
2022/03/06 10:17:27;;;;;;;2.85;2.05;;;;;;;4.77;68.67;102962.50;4992019;28;20049;-82
2022/03/06 10:20:09;;;;;;;4.72;2.20;;;;;;;4.78;69.09;102971.22;5004765;28;20045;-81
2022/03/06 10:22:40;;;;;;;3.20;2.20;;;;;;;4.75;68.75;102956.28;4976486;28;20038;-79
2022/03/06 10:25:12;;;;;;;;;;;;;;;4.74;69.51;102961.41;5014330;28;20054;-79
2022/03/06 10:27:44;;;;;;;2.97;2.38;;;;;;;4.75;69.47;102952.75;4980765;28;19921;-80
2022/03/06 10:30:33;;;;;;;2.92;1.90;;;;;;;4.81;68.36;102959.25;4987316;28;20262;-80
2022/03/06 10:33:19;;;;;;;3.03;2.10;;;;;;;4.86;69.98;102956.94;5005705;28;20137;-78
2022/03/06 10:35:50;;;;;;;3.67;2.53;;;;;;;4.89;69.64;102951.88;5015713;28;20144;-80
2022/03/06 10:38:31;;;;;;;4.50;2.55;;;;;;;4.92;68.75;102951.19;4976190;28;20151;-81
2022/03/06 10:41:17;;;;;;;5.93;2.50;;;;;;;4.91;69.81;102954.59;5014775;28;20046;-80
2022/03/06 10:43:47;;;;;;;6.20;2.58;;;;;;;4.94;70.82;102955.66;5002746;28;20046;-81
2022/03/06 10:46:17;;;;;;;6.30;2.47;;;;;;;5.01;70.85;102962.16;4998287;28;20065;-79
2022/03/06 10:48:55;;;;;;;4.47;2.65;;;;;;;5.08;70.20;102956.47;4994893;28;20128;-83
2022/03/06 10:51:25;;;;;;;5.20;2.55;;;;;;;5.19;71.27;102954.50;5004997;28;20038;-81
2022/03/06 10:53:57;;;;;;;2.65;2.20;;;;;;;5.31;71.32;102956.94;4992897;28;20034;-81
2022/03/06 10:56:27;;;;;;;2.85;2.58;;;;;;;5.39;71.66;102953.06;5006181;28;20042;-81
2022/03/06 10:58:57;;;;;;;3.50;2.03;;;;;;;5.50;71.15;102954.59;5003774;28;20041;-81
2022/03/06 11:01:28;;;;;;;4.13;2.30;;;;;;;5.51;70.17;102951.16;5014531;28;20057;-81
2022/03/06 11:03:59;;;;;;;2.40;2.10;;;;;;;5.49;69.90;102951.88;5015738;28;20406;-81
2022/03/06 11:06:29;;;;;;;2.97;2.25;;;;;;;5.46;69.88;102960.44;5017940;28;20046;-81
2022/03/06 11:08:58;;;;;;;3.42;1.98;;;;;;;5.52;70.64;102957.28;4983714;28;20045;-81
2022/03/06 11:11:27;;;;;;;5.57;2.50;;;;;;;5.59;70.09;102954.22;5017939;28;20042;-81
2022/03/06 11:13:55;;;;;;;3.38;2.10;;;;;;;5.61;69.50;102965.66;5004393;28;20038;-81
2022/03/06 11:16:25;;;;;;;4.82;2.65;;;;;;;5.66;69.36;102951.13;5006336;28;20640;-81
2022/03/06 11:18:59;;;;;;;2.40;2.05;;;;;;;5.75;70.28;102959.50;5006080;28;20534;-82
2022/03/06 11:21:29;;;;;;;5.90;2.28;;;;;;;5.82;69.68;102959.06;4997664;28;20045;-82
2022/03/06 11:24:07;;;;;;;3.83;2.70;;;;;;;5.86;69.33;102952.28;4952880;28;20069;-81
2022/03/06 11:27:02;;;;;;;2.83;1.95;;;;;;;5.89;69.59;102960.28;4982276;28;20525;-81
2022/03/06 11:29:55;;;;;;;2.88;2.28;;;;;;;5.88;69.48;102953.25;4986146;28;20503;-81
2022/03/06 11:32:28;;;;;;;2.47;2.20;;;;;;;5.86;68.63;102954.91;4999628;28;20042;-77
2022/03/06 11:35:08;;;;;;;4.50;2.50;;;;;;;5.84;68.85;102957.41;4991983;28;20426;-78
2022/03/06 11:37:50;;;;;;;3.22;2.22;;;;;;;5.85;68.68;102945.22;5004970;28;20045;-79
2022/03/06 11:40:40;;;;;;;2.40;2.20;;;;;;;5.82;68.46;102952.88;4976369;28;20422;-79